createdAt,value
2019-06-07T00:01:40.731Z,10.57
2019-06-07T00:04:11.542Z,9.43
2019-06-07T00:06:41.568Z,12.33
2019-06-07T00:09:12.075Z,8.33
2019-06-07T00:11:41.601Z,10.07
2019-06-07T00:14:13.007Z,10.37
2019-06-07T00:16:41.048Z,10.53
2019-06-07T00:19:09.839Z,12.60
2019-06-07T00:22:13.804Z,13.30
2019-06-07T00:24:14.036Z,12.77
2019-06-07T00:26:57.709Z,10.93
2019-06-07T00:29:15.442Z,12.57
2019-06-07T00:31:43.953Z,14.17
2019-06-07T00:34:14.033Z,11.43
2019-06-07T00:36:43.914Z,10.27
2019-06-07T00:39:14.494Z,7.30
2019-06-07T00:41:44.224Z,5.67
2019-06-07T00:44:14.994Z,6.20
2019-06-07T00:46:44.116Z,6.33
2019-06-07T00:49:29.506Z,8.10
2019-06-07T00:51:50.429Z,15.00
2019-06-07T00:54:19.521Z,18.03
2019-06-07T00:56:46.476Z,16.57
2019-06-07T00:59:18.566Z,17.60
2019-06-07T01:01:46.791Z,8.77
2019-06-07T01:04:19.385Z,9.57
2019-06-07T01:06:47.068Z,10.77
2019-06-07T01:09:17.367Z,19.43
2019-06-07T01:11:47.324Z,11.87
2019-06-07T01:14:21.014Z,15.97
2019-06-07T01:16:57.518Z,14.20
2019-06-07T01:19:21.156Z,15.00
2019-06-07T01:21:49.944Z,11.83
2019-06-07T01:24:20.035Z,14.03
2019-06-07T01:26:49.676Z,16.13
2019-06-07T01:29:20.090Z,12.13
2019-06-07T01:31:49.017Z,10.33
2019-06-07T01:34:18.531Z,10.83
2019-06-07T01:36:47.860Z,12.17
2019-06-07T01:39:18.820Z,11.83
2019-06-07T01:41:47.739Z,11.13
2019-06-07T01:44:18.551Z,9.77
2019-06-07T01:46:47.493Z,10.37
2019-06-07T01:49:17.125Z,7.40
2019-06-07T01:51:46.666Z,8.90
2019-06-07T01:56:46.718Z,12.13
2019-06-07T01:59:15.782Z,13.20
2019-06-07T02:01:45.517Z,12.33
2019-06-07T02:04:14.787Z,11.67
2019-06-07T02:06:44.159Z,12.63
2019-06-07T02:09:13.329Z,14.17
2019-06-07T02:11:42.623Z,11.27
2019-06-07T02:14:11.486Z,10.93
2019-06-07T02:16:40.540Z,14.07
2019-06-07T02:19:09.406Z,10.80
2019-06-07T02:21:38.481Z,11.03
2019-06-07T02:24:07.409Z,10.37
2019-06-07T02:26:37.246Z,10.90
2019-06-07T02:29:06.482Z,10.30
2019-06-07T02:31:39.308Z,10.50
2019-06-07T02:34:06.644Z,10.10
2019-06-07T02:36:41.341Z,9.33
2019-06-07T02:39:07.954Z,10.33
2019-06-07T02:41:39.873Z,12.87
2019-06-07T02:44:08.010Z,11.03
2019-06-07T02:46:46.755Z,10.87
2019-06-07T02:49:08.086Z,10.00
2019-06-07T02:51:41.356Z,10.27
2019-06-07T02:54:07.935Z,10.63
2019-06-07T02:56:54.043Z,10.23
2019-06-07T02:59:08.053Z,10.17
2019-06-07T03:01:41.390Z,11.40
2019-06-07T03:04:08.290Z,11.13
2019-06-07T03:06:43.272Z,10.57
2019-06-07T03:09:09.320Z,9.73
2019-06-07T03:11:41.669Z,9.73
2019-06-07T03:14:12.819Z,10.83
2019-06-07T03:16:50.239Z,12.60
2019-06-07T03:19:26.466Z,10.13
2019-06-07T03:21:56.106Z,10.90
2019-06-07T03:24:29.590Z,12.27
2019-06-07T03:29:29.710Z,11.33
2019-06-07T03:31:58.708Z,10.80
2019-06-07T03:34:32.188Z,11.07
2019-06-07T03:36:59.538Z,11.73
2019-06-07T03:39:29.574Z,11.87
2019-06-07T03:42:06.520Z,10.60
2019-06-07T03:44:33.954Z,9.77
2019-06-07T03:47:01.840Z,10.90
2019-06-07T03:49:35.471Z,12.63
2019-06-07T03:52:02.371Z,11.50
2019-06-07T03:54:32.134Z,10.07
2019-06-07T03:57:02.736Z,10.10
2019-06-07T03:59:36.203Z,8.67
2019-06-07T04:02:02.589Z,9.73
2019-06-07T04:04:32.451Z,9.03
2019-06-07T04:07:02.495Z,9.83
2019-06-07T04:09:35.602Z,9.17
2019-06-07T04:12:02.602Z,8.47
2019-06-07T04:14:32.881Z,9.40
2019-06-07T04:17:02.640Z,9.13
2019-06-07T04:19:32.350Z,9.00
2019-06-07T04:22:02.022Z,8.27
2019-06-07T04:24:36.591Z,8.50
2019-06-07T04:27:03.050Z,8.23
2019-06-07T04:29:47.338Z,7.97
2019-06-07T04:32:04.428Z,9.03
2019-06-07T04:34:37.494Z,7.50
2019-06-07T04:37:04.870Z,7.00
2019-06-07T04:39:38.303Z,8.73
2019-06-07T04:42:07.114Z,7.30
2019-06-07T04:44:41.048Z,7.67
2019-06-07T04:47:11.707Z,7.67
2019-06-07T04:49:44.228Z,7.40
2019-06-07T04:52:14.528Z,6.47
2019-06-07T04:54:45.853Z,7.27
2019-06-07T04:57:14.188Z,7.90
2019-06-07T05:02:14.865Z,7.33
2019-06-07T05:04:44.009Z,7.67
2019-06-07T05:07:13.547Z,6.80
2019-06-07T05:09:43.519Z,9.77
2019-06-07T05:12:12.647Z,8.20
2019-06-07T05:14:44.081Z,7.40
2019-06-07T05:17:12.381Z,7.47
2019-06-07T05:19:44.163Z,7.63
2019-06-07T05:22:12.473Z,6.87
2019-06-07T05:24:44.017Z,9.43
2019-06-07T05:27:13.068Z,7.00
2019-06-07T05:29:44.300Z,7.37
2019-06-07T05:32:12.862Z,8.17
2019-06-07T05:34:46.944Z,7.97
2019-06-07T05:37:13.449Z,7.60
2019-06-07T05:39:46.299Z,7.67
2019-06-07T05:42:13.800Z,7.47
2019-06-07T05:44:45.537Z,7.50
2019-06-07T05:47:14.839Z,20.77
2019-06-07T05:49:47.144Z,7.70
2019-06-07T05:52:15.297Z,10.10
2019-06-07T05:54:46.856Z,9.97
2019-06-07T05:57:15.036Z,9.57
2019-06-07T05:59:46.836Z,9.07
2019-06-07T06:02:22.620Z,9.17
2019-06-07T06:04:49.225Z,11.23
2019-06-07T06:07:17.232Z,9.80
2019-06-07T06:09:47.633Z,8.97
2019-06-07T06:12:33.814Z,9.93
2019-06-07T06:14:48.267Z,10.70
2019-06-07T06:17:17.306Z,8.67
2019-06-07T06:19:50.434Z,8.00
2019-06-07T06:22:17.447Z,9.50
2019-06-07T06:25:22.624Z,9.10
2019-06-07T06:27:55.590Z,7.97
2019-06-07T06:29:50.505Z,9.83
2019-06-07T06:34:54.030Z,8.53
2019-06-07T06:37:23.711Z,7.97
2019-06-07T06:39:53.328Z,8.60
2019-06-07T06:42:22.206Z,7.80
2019-06-07T06:44:54.122Z,7.80
2019-06-07T06:47:22.969Z,8.90
2019-06-07T06:49:54.264Z,7.93
2019-06-07T06:52:23.783Z,9.37
2019-06-07T06:55:00.094Z,7.10
2019-06-07T06:57:23.859Z,9.30
2019-06-07T06:59:53.233Z,7.57
2019-06-07T07:02:23.071Z,10.07
2019-06-07T07:04:54.090Z,6.80
2019-06-07T07:07:24.643Z,9.57
2019-06-07T07:09:59.090Z,9.23
2019-06-07T07:12:24.680Z,8.53
2019-06-07T07:14:56.054Z,7.60
2019-06-07T07:17:46.924Z,8.77
2019-06-07T07:19:55.864Z,7.70
2019-06-07T07:22:25.632Z,8.30
2019-06-07T07:24:55.281Z,6.80
2019-06-07T07:27:24.812Z,6.80
2019-06-07T07:30:31.283Z,8.23
2019-06-07T07:32:25.723Z,8.00
2019-06-07T07:35:00.297Z,7.53
2019-06-07T07:37:26.421Z,6.00
2019-06-07T07:40:01.768Z,9.07
2019-06-07T07:42:26.444Z,7.27
2019-06-07T07:44:56.826Z,6.37
2019-06-07T07:47:25.907Z,7.77
2019-06-07T07:49:58.605Z,8.00
2019-06-07T07:52:26.628Z,6.33
2019-06-07T07:54:57.775Z,7.10
2019-06-07T07:57:26.825Z,6.77
2019-06-07T08:00:25.267Z,6.53
2019-06-07T08:02:27.906Z,6.80
2019-06-07T08:07:28.240Z,8.13
2019-06-07T08:10:02.903Z,6.20
2019-06-07T08:13:18.194Z,6.33
2019-06-07T08:15:23.949Z,7.23
2019-06-07T08:17:59.664Z,5.87
2019-06-07T08:20:24.794Z,7.27
2019-06-07T08:22:57.809Z,6.70
2019-06-07T08:25:24.591Z,6.47
2019-06-07T08:27:56.013Z,8.27
2019-06-07T08:30:47.788Z,6.30
2019-06-07T08:33:17.479Z,6.60
2019-06-07T08:36:03.563Z,9.20
2019-06-07T08:38:25.092Z,6.87
2019-06-07T08:40:31.416Z,6.67
2019-06-07T08:43:13.048Z,5.90
2019-06-07T08:45:32.109Z,5.90
2019-06-07T08:48:05.443Z,5.20
2019-06-07T08:50:32.139Z,4.43
2019-06-07T08:53:11.235Z,5.97
2019-06-07T08:55:31.572Z,5.63
2019-06-07T08:58:04.208Z,5.87
2019-06-07T09:00:48.147Z,6.07
2019-06-07T09:03:06.981Z,6.77
2019-06-07T09:05:34.081Z,7.83
2019-06-07T09:08:23.641Z,5.70
2019-06-07T09:10:33.822Z,5.43
2019-06-07T09:13:07.971Z,8.33
2019-06-07T09:15:33.871Z,6.60
2019-06-07T09:18:39.967Z,5.97
2019-06-07T09:20:47.579Z,6.47
2019-06-07T09:23:17.740Z,5.67
2019-06-07T09:25:57.182Z,5.97
2019-06-07T09:28:20.540Z,5.77
2019-06-07T09:30:50.003Z,4.90
2019-06-07T09:33:18.814Z,7.07
2019-06-07T09:35:47.724Z,5.60
2019-06-07T09:38:25.476Z,5.33
2019-06-07T09:40:48.138Z,6.03
2019-06-07T09:45:48.770Z,4.03
2019-06-07T09:49:07.403Z,4.27
2019-06-07T09:50:49.088Z,4.27
2019-06-07T09:53:22.667Z,7.77
2019-06-07T09:55:49.491Z,5.93
2019-06-07T09:58:50.429Z,4.67
2019-06-07T10:00:50.556Z,5.60
2019-06-07T10:03:22.235Z,7.00
2019-06-07T10:05:50.779Z,6.77
2019-06-07T10:09:31.696Z,4.03
2019-06-07T10:10:51.202Z,4.27
2019-06-07T10:13:20.100Z,3.93
2019-06-07T10:15:49.550Z,5.73
2019-06-07T10:18:18.363Z,4.07
2019-06-07T10:20:47.487Z,4.87
2019-06-07T10:23:16.647Z,4.70
2019-06-07T10:25:45.829Z,4.87
2019-06-07T10:28:15.294Z,4.77
2019-06-07T10:30:44.842Z,5.50
2019-06-07T10:33:14.151Z,4.53
2019-06-07T10:35:43.269Z,5.57
2019-06-07T10:38:12.632Z,4.97
2019-06-07T10:40:41.662Z,4.83
2019-06-07T10:43:14.399Z,3.93
2019-06-07T10:45:42.357Z,4.83
2019-06-07T10:48:11.987Z,4.00
2019-06-07T10:50:40.933Z,4.70
2019-06-07T10:53:10.734Z,4.43
2019-06-07T10:55:39.666Z,6.20
2019-06-07T10:58:09.201Z,4.83
2019-06-07T11:00:38.898Z,4.13
2019-06-07T11:03:09.781Z,4.17
2019-06-07T11:05:38.775Z,5.57
2019-06-07T11:08:08.143Z,3.60
2019-06-07T11:10:36.939Z,5.13
2019-06-07T11:13:06.415Z,3.90
2019-06-07T11:15:35.659Z,5.57
2019-06-07T11:18:06.236Z,4.10
2019-06-07T11:20:35.746Z,4.93
2019-06-07T11:23:06.618Z,3.87
2019-06-07T11:25:35.359Z,13.00
2019-06-07T11:28:06.225Z,4.10
2019-06-07T11:30:35.511Z,5.23
2019-06-07T11:33:04.390Z,3.20
2019-06-07T11:35:33.828Z,6.03
2019-06-07T11:38:03.307Z,4.17
2019-06-07T11:40:35.915Z,4.20
2019-06-07T11:43:03.139Z,5.43
2019-06-07T11:45:31.955Z,4.80
2019-06-07T11:48:01.186Z,4.47
2019-06-07T11:50:30.319Z,6.23
2019-06-07T11:52:59.680Z,4.90
2019-06-07T11:55:28.816Z,3.83
2019-06-07T11:57:57.623Z,4.47
2019-06-07T12:00:26.886Z,3.70
2019-06-07T12:02:56.249Z,4.50
2019-06-07T12:05:25.318Z,11.00
2019-06-07T12:07:57.185Z,5.40
2019-06-07T12:10:25.896Z,4.13
2019-06-07T12:12:55.307Z,3.77
2019-06-07T12:15:24.227Z,4.43
2019-06-07T12:17:53.390Z,3.33
2019-06-07T12:20:23.315Z,4.20
2019-06-07T12:22:52.815Z,4.83
2019-06-07T12:25:25.003Z,3.97
2019-06-07T12:27:53.239Z,5.33
2019-06-07T12:30:27.672Z,4.77
2019-06-07T12:32:53.610Z,4.47
2019-06-07T12:35:22.501Z,5.17
2019-06-07T12:37:51.590Z,3.20
2019-06-07T12:40:30.237Z,7.97
2019-06-07T12:42:51.499Z,3.87
2019-06-07T12:45:40.114Z,4.23
2019-06-07T12:47:52.040Z,3.63
2019-06-07T12:50:21.801Z,7.00
2019-06-07T12:52:51.299Z,4.60
2019-06-07T12:55:22.514Z,5.13
2019-06-07T12:57:51.931Z,4.43
2019-06-07T13:00:22.273Z,4.03
2019-06-07T13:02:51.359Z,3.80
2019-06-07T13:05:21.667Z,4.63
2019-06-07T13:07:51.068Z,4.17
2019-06-07T13:10:20.134Z,5.33
2019-06-07T13:12:49.077Z,4.97
2019-06-07T13:15:20.075Z,5.43
2019-06-07T13:17:48.637Z,5.00
2019-06-07T13:20:18.214Z,5.10
2019-06-07T13:22:47.915Z,4.43
2019-06-07T13:25:18.441Z,6.27
2019-06-07T13:27:47.683Z,3.30
2019-06-07T13:30:18.957Z,6.20
2019-06-07T13:32:48.141Z,6.30
2019-06-07T13:35:18.803Z,4.77
2019-06-07T13:37:48.505Z,6.93
2019-06-07T13:40:19.681Z,4.93
2019-06-07T13:42:49.062Z,4.37
2019-06-07T13:45:20.054Z,5.60
2019-06-07T13:47:49.316Z,4.57
2019-06-07T13:50:19.623Z,5.03
2019-06-07T13:52:49.270Z,4.47
2019-06-07T13:55:19.923Z,3.67
2019-06-07T13:57:49.496Z,5.60
2019-06-07T14:00:21.108Z,5.33
2019-06-07T14:02:50.552Z,5.80
2019-06-07T14:05:20.817Z,6.00
2019-06-07T14:07:50.460Z,4.57
2019-06-07T14:10:19.475Z,3.43
2019-06-07T14:12:49.019Z,5.70
2019-06-07T14:15:20.366Z,5.87
2019-06-07T14:17:49.660Z,4.70
2019-06-07T14:20:18.872Z,3.93
2019-06-07T14:22:49.971Z,5.23
2019-06-07T14:25:19.187Z,4.40
2019-06-07T14:27:48.512Z,5.30
2019-06-07T14:30:18.376Z,4.90
2019-06-07T14:32:47.715Z,6.93
2019-06-07T14:35:16.879Z,4.73
2019-06-07T14:37:45.744Z,3.53
2019-06-07T14:40:17.628Z,4.77
2019-06-07T14:42:47.047Z,5.23
2019-06-07T14:45:16.830Z,5.00
2019-06-07T14:47:45.927Z,5.73
2019-06-07T14:50:15.386Z,5.13
2019-06-07T14:52:44.540Z,4.33
2019-06-07T14:55:14.080Z,5.10
2019-06-07T14:57:43.202Z,5.40
2019-06-07T15:00:13.099Z,3.70
2019-06-07T15:02:42.251Z,5.00
2019-06-07T15:05:11.963Z,4.63
2019-06-07T15:07:41.409Z,6.20
2019-06-07T15:10:11.753Z,4.40
2019-06-07T15:12:41.054Z,4.53
2019-06-07T15:15:10.317Z,4.30
2019-06-07T15:17:41.463Z,6.00
2019-06-07T15:20:10.818Z,4.53
2019-06-07T15:22:40.296Z,5.33
2019-06-07T15:25:10.059Z,5.83
2019-06-07T15:27:39.657Z,3.97
2019-06-07T15:30:10.247Z,3.73
2019-06-07T15:32:40.069Z,3.87
2019-06-07T15:35:09.567Z,5.93
2019-06-07T15:37:39.545Z,5.07
2019-06-07T15:40:09.289Z,6.07
2019-06-07T15:42:49.758Z,5.37
2019-06-07T15:45:09.653Z,3.17
2019-06-07T15:47:40.321Z,4.00
2019-06-07T15:50:10.202Z,5.20
2019-06-07T15:52:41.286Z,4.23
2019-06-07T15:55:12.580Z,6.50
2019-06-07T15:57:42.139Z,4.30
2019-06-07T16:00:13.861Z,4.97
2019-06-07T16:02:42.784Z,4.23
2019-06-07T16:05:11.920Z,4.80
2019-06-07T16:07:42.881Z,5.83
2019-06-07T16:10:12.723Z,4.53
2019-06-07T16:12:58.602Z,5.87
2019-06-07T16:15:13.690Z,4.47
2019-06-07T16:17:43.859Z,4.60
2019-06-07T16:20:13.604Z,6.17
2019-06-07T16:22:43.975Z,4.97
2019-06-07T16:25:14.495Z,4.57
2019-06-07T16:27:44.822Z,4.97
2019-06-07T16:30:14.330Z,6.43
2019-06-07T16:32:45.792Z,5.57
2019-06-07T16:35:15.214Z,4.87
2019-06-07T16:37:46.957Z,4.53
2019-06-07T16:40:16.477Z,5.60
2019-06-07T16:42:46.129Z,4.93
2019-06-07T16:45:17.474Z,3.50
2019-06-07T16:47:47.783Z,4.37
2019-06-07T16:50:17.546Z,4.50
2019-06-07T16:52:48.421Z,5.73
2019-06-07T16:55:18.160Z,5.07
2019-06-07T16:57:49.099Z,4.73
2019-06-07T17:00:19.959Z,5.17
2019-06-07T17:02:49.105Z,3.87
2019-06-07T17:05:18.446Z,6.77
2019-06-07T17:07:48.923Z,5.13
2019-06-07T17:10:18.414Z,3.70
2019-06-07T17:12:49.012Z,3.63
2019-06-07T17:15:18.507Z,6.27
2019-06-07T17:17:49.319Z,3.90
2019-06-07T17:20:18.687Z,5.60
2019-06-07T17:22:47.722Z,4.43
2019-06-07T17:25:17.042Z,5.17
2019-06-07T17:27:46.326Z,6.10
2019-06-07T17:30:16.858Z,4.40
2019-06-07T17:32:56.337Z,8.33
2019-06-07T17:35:16.827Z,4.30
2019-06-07T17:37:47.528Z,4.53
2019-06-07T17:40:17.162Z,12.43
2019-06-07T17:42:46.848Z,9.37
2019-06-07T17:45:16.778Z,5.03
2019-06-07T17:47:47.755Z,9.43
2019-06-07T17:50:17.809Z,7.73
2019-06-07T17:52:48.019Z,6.67
2019-06-07T17:55:19.177Z,7.77
2019-06-07T17:57:49.361Z,7.63
2019-06-07T18:00:28.812Z,4.60
2019-06-07T18:02:51.054Z,4.87
2019-06-07T18:05:20.184Z,7.50
2019-06-07T18:07:51.808Z,8.43
2019-06-07T18:10:34.973Z,5.23
2019-06-07T18:13:04.466Z,3.57
2019-06-07T18:15:39.030Z,6.53
2019-06-07T18:18:08.102Z,3.27
2019-06-07T18:20:37.490Z,2.77
2019-06-07T18:23:07.291Z,4.37
2019-06-07T18:25:36.200Z,6.87
2019-06-07T18:28:05.991Z,4.27
2019-06-07T18:30:35.019Z,4.87
2019-06-07T18:33:04.298Z,3.07
2019-06-07T18:35:33.515Z,2.23
2019-06-07T18:38:03.028Z,3.33
2019-06-07T18:40:32.436Z,1.80
2019-06-07T18:43:01.771Z,4.53
2019-06-07T18:45:30.618Z,1.47
2019-06-07T18:47:59.670Z,3.17
2019-06-07T18:50:28.787Z,1.63
2019-06-07T18:52:58.979Z,3.13
2019-06-07T18:55:28.346Z,1.60
2019-06-07T18:57:58.561Z,2.97
2019-06-07T19:00:28.274Z,2.03
2019-06-07T19:02:58.077Z,2.10
2019-06-07T19:05:27.904Z,4.27
2019-06-07T19:07:57.037Z,1.50
2019-06-07T19:10:26.300Z,2.13
2019-06-07T19:12:55.523Z,2.63
2019-06-07T19:15:25.382Z,2.53
2019-06-07T19:17:55.931Z,3.47
2019-06-07T19:20:25.669Z,1.43
2019-06-07T19:22:56.354Z,1.57
2019-06-07T19:25:25.989Z,1.33
2019-06-07T19:27:57.012Z,2.53
2019-06-07T19:30:26.155Z,3.93
2019-06-07T19:32:55.364Z,2.90
2019-06-07T19:35:25.035Z,2.37
2019-06-07T19:37:55.839Z,1.57
2019-06-07T19:40:25.491Z,1.60
2019-06-07T19:42:54.526Z,3.30
2019-06-07T19:45:30.519Z,2.37
2019-06-07T19:47:54.632Z,2.57
2019-06-07T19:50:23.822Z,1.27
2019-06-07T19:52:53.152Z,4.30
2019-06-07T19:55:22.108Z,3.43
2019-06-07T19:57:51.323Z,2.80
2019-06-07T20:00:20.580Z,0.87
2019-06-07T20:02:49.750Z,2.43
2019-06-07T20:05:19.579Z,1.47
2019-06-07T20:07:48.803Z,0.90
2019-06-07T20:10:17.843Z,1.47
2019-06-07T20:12:47.306Z,4.07
2019-06-07T20:15:28.591Z,2.43
2019-06-07T20:17:47.848Z,1.50
2019-06-07T20:20:17.419Z,1.23
2019-06-07T20:22:46.738Z,3.17
2019-06-07T20:25:16.457Z,2.00
2019-06-07T20:27:45.769Z,1.63
2019-06-07T20:30:16.780Z,1.63
2019-06-07T20:32:46.174Z,1.40
2019-06-07T20:35:15.673Z,1.50
2019-06-07T20:37:44.772Z,2.20
2019-06-07T20:40:23.557Z,1.77
2019-06-07T20:42:44.916Z,2.80
2019-06-07T20:45:14.551Z,1.87
2019-06-07T20:47:44.329Z,1.80
2019-06-07T20:50:13.844Z,1.10
2019-06-07T20:52:42.941Z,1.00
2019-06-07T20:55:13.664Z,2.07
2019-06-07T20:57:42.785Z,2.87
2019-06-07T21:00:21.083Z,2.90
2019-06-07T21:02:44.207Z,4.13
2019-06-07T21:05:14.064Z,1.53
2019-06-07T21:07:43.627Z,3.37
2019-06-07T21:10:13.211Z,2.87
2019-06-07T21:12:42.360Z,1.40
2019-06-07T21:15:14.342Z,1.50
2019-06-07T21:17:42.197Z,3.70
2019-06-07T21:20:14.529Z,1.10
2019-06-07T21:22:43.036Z,1.40
2019-06-07T21:25:12.386Z,4.50
2019-06-07T21:27:41.288Z,1.70
2019-06-07T21:30:11.633Z,2.73
2019-06-07T21:32:41.002Z,2.73
2019-06-07T21:35:12.389Z,3.13
2019-06-07T21:37:41.831Z,2.90
2019-06-07T21:40:12.239Z,2.83
2019-06-07T21:42:41.671Z,2.70
2019-06-07T21:45:12.064Z,2.10
2019-06-07T21:47:42.088Z,2.30
2019-06-07T21:50:11.446Z,1.77
2019-06-07T21:52:42.228Z,1.23
2019-06-07T21:55:11.605Z,1.37
2019-06-07T21:57:40.931Z,1.87
2019-06-07T22:00:15.060Z,3.93
2019-06-07T22:02:44.215Z,1.67
2019-06-07T22:05:14.992Z,2.20
2019-06-07T22:07:43.852Z,3.60
2019-06-07T22:10:14.486Z,1.57
2019-06-07T22:13:03.968Z,2.10
2019-06-07T22:15:37.352Z,1.90
2019-06-07T22:18:04.424Z,2.17
2019-06-07T22:20:33.908Z,2.57
2019-06-07T22:23:03.046Z,1.63
2019-06-07T22:25:31.866Z,4.27
2019-06-07T22:28:00.951Z,1.50
2019-06-07T22:30:30.235Z,1.90
2019-06-07T22:32:59.561Z,1.37
2019-06-07T22:35:28.451Z,1.37
2019-06-07T22:37:58.457Z,1.77
2019-06-07T22:40:27.604Z,0.50
2019-06-07T22:42:56.403Z,1.40
2019-06-07T22:45:25.335Z,1.57
2019-06-07T22:47:54.146Z,2.07
2019-06-07T22:50:23.582Z,2.13
2019-06-07T22:52:53.042Z,1.63
2019-06-07T22:55:22.286Z,1.23
2019-06-07T22:57:56.460Z,1.93
2019-06-07T23:00:26.838Z,1.83
2019-06-07T23:02:56.242Z,3.60
2019-06-07T23:05:25.573Z,3.23
2019-06-07T23:07:55.358Z,2.43
2019-06-07T23:10:24.760Z,2.53
2019-06-07T23:12:53.723Z,1.13
2019-06-07T23:15:22.615Z,1.97
2019-06-07T23:17:52.080Z,0.87
2019-06-07T23:20:22.976Z,2.43
2019-06-07T23:22:52.785Z,5.50
2019-06-07T23:25:24.288Z,1.60
2019-06-07T23:27:52.227Z,2.03
2019-06-07T23:30:21.789Z,2.83
2019-06-07T23:32:51.196Z,2.20
2019-06-07T23:35:21.168Z,1.30
2019-06-07T23:37:50.711Z,2.23
2019-06-07T23:40:19.667Z,2.07
2019-06-07T23:42:49.057Z,2.03
2019-06-07T23:45:18.007Z,2.43
2019-06-07T23:47:47.061Z,5.10
2019-06-07T23:50:17.658Z,2.77
2019-06-07T23:52:47.052Z,1.93
2019-06-07T23:55:15.968Z,2.33
2019-06-07T23:57:45.054Z,5.90
